Terminal Aerodrome Forecast
Issued by NWS

Current Version | Previous Version | Text Only | Print | Product List | Glossary Off
Versions: 1 2 3 4 5 6 7 8 9 10 11 12 13 14 15 16 17 18 19 20 21 22 23 24 25

000
FTUS41 KRNK 190944 AAB
TAFLWB
TAF AMD
KLWB 190944Z 1910/2006 01003KT 1/4SM FG OVC001
      TEMPO 1910/1912 2SM BR SCT005
     FM191400 00000KT P6SM SCT003
     FM191600 28003KT P6SM SCT060=

USA.gov is the U.S. government's official web portal to all federal, state and local government web resources and services.